createdAt,value
2023-02-09T00:00:02.262Z,7.6
2023-02-09T00:05:00.763Z,7.2
2023-02-09T00:10:00.729Z,7.0
2023-02-09T00:15:00.789Z,7.0
2023-02-09T00:20:00.864Z,7.3
2023-02-09T00:25:00.768Z,6.7
2023-02-09T00:30:00.817Z,6.7
2023-02-09T00:35:00.918Z,6.1
2023-02-09T00:40:00.710Z,6.1
2023-02-09T00:45:00.954Z,5.9
2023-02-09T00:50:00.800Z,5.9
2023-02-09T00:55:00.733Z,6.0
2023-02-09T01:00:00.709Z,5.4
2023-02-09T01:05:00.828Z,5.2
2023-02-09T01:10:00.747Z,5.5
2023-02-09T01:15:00.737Z,5.1
2023-02-09T01:20:00.810Z,5.0
2023-02-09T01:25:00.960Z,4.9
2023-02-09T01:30:03.192Z,4.4
2023-02-09T01:35:00.758Z,4.9
2023-02-09T01:40:00.745Z,5.1
2023-02-09T01:45:00.877Z,5.0
2023-02-09T01:50:00.707Z,4.7
2023-02-09T01:55:00.880Z,4.8
2023-02-09T02:00:00.730Z,4.7
2023-02-09T02:05:00.800Z,5.3
2023-02-09T02:10:00.774Z,4.7
2023-02-09T02:15:00.838Z,4.5
2023-02-09T02:20:00.717Z,4.9
2023-02-09T02:25:00.751Z,5.0
2023-02-09T02:30:00.719Z,5.1
2023-02-09T02:40:00.970Z,5.0
2023-02-09T02:45:00.961Z,5.3
2023-02-09T02:50:00.943Z,4.9
2023-02-09T02:55:00.753Z,5.6
2023-02-09T03:00:00.725Z,5.7
2023-02-09T03:05:00.915Z,4.8
2023-02-09T03:10:03.103Z,5.3
2023-02-09T03:15:00.817Z,4.9
2023-02-09T03:20:00.814Z,4.4
2023-02-09T03:25:01.029Z,4.8
2023-02-09T03:30:00.701Z,4.1
2023-02-09T03:35:00.830Z,4.1
2023-02-09T03:40:00.797Z,4.6
2023-02-09T03:45:00.785Z,4.4
2023-02-09T03:50:01.007Z,4.4
2023-02-09T03:55:00.731Z,5.0
2023-02-09T04:00:00.837Z,4.4
2023-02-09T04:05:00.937Z,4.0
2023-02-09T04:10:00.951Z,4.4
2023-02-09T04:15:00.690Z,4.1
2023-02-09T04:20:00.916Z,4.4
2023-02-09T04:25:00.793Z,4.4
2023-02-09T04:30:00.732Z,3.6
2023-02-09T04:35:00.734Z,4.6
2023-02-09T04:40:00.755Z,4.2
2023-02-09T04:45:00.807Z,4.5
2023-02-09T04:50:00.893Z,4.7
2023-02-09T04:55:00.734Z,4.4
2023-02-09T05:00:00.687Z,4.5
2023-02-09T05:05:01.055Z,5.1
2023-02-09T05:10:00.737Z,4.5
2023-02-09T05:15:01.261Z,5.0
2023-02-09T05:20:01.019Z,4.0
2023-02-09T05:25:00.812Z,4.5
2023-02-09T05:30:00.815Z,5.1
2023-02-09T05:35:01.032Z,4.6
2023-02-09T05:40:00.859Z,4.6
2023-02-09T05:45:00.734Z,4.6
2023-02-09T05:50:00.724Z,4.3
2023-02-09T05:55:00.903Z,5.5
2023-02-09T06:00:00.894Z,5.3
2023-02-09T06:05:00.938Z,5.2
2023-02-09T06:10:01.027Z,5.2
2023-02-09T06:15:00.729Z,5.2
2023-02-09T06:20:00.805Z,5.2
2023-02-09T06:25:00.689Z,5.0
2023-02-09T06:30:00.719Z,6.0
2023-02-09T06:35:00.710Z,5.1
2023-02-09T06:40:00.765Z,5.7
2023-02-09T06:45:00.685Z,5.2
2023-02-09T06:50:01.084Z,5.5
2023-02-09T06:55:00.706Z,4.8
2023-02-09T07:00:00.844Z,5.6
2023-02-09T07:05:00.937Z,5.6
2023-02-09T07:10:00.690Z,6.2
2023-02-09T07:15:00.738Z,5.6
2023-02-09T07:20:00.752Z,5.0
2023-02-09T07:25:00.695Z,6.2
2023-02-09T07:30:01.366Z,6.1
2023-02-09T07:35:00.769Z,4.5
2023-02-09T07:40:00.700Z,5.9
2023-02-09T07:45:01.085Z,5.5
2023-02-09T07:50:00.741Z,5.6
2023-02-09T07:55:00.776Z,6.1
2023-02-09T08:00:00.835Z,5.7
2023-02-09T08:05:01.015Z,6.6
2023-02-09T08:10:00.702Z,6.4
2023-02-09T08:15:00.748Z,6.3
2023-02-09T08:20:00.774Z,6.7
2023-02-09T08:25:00.768Z,5.6
2023-02-09T08:30:00.770Z,6.3
2023-02-09T08:35:00.796Z,6.4
2023-02-09T08:40:00.726Z,7.2
2023-02-09T08:45:00.799Z,7.4
2023-02-09T08:50:00.807Z,7.1
2023-02-09T08:55:00.753Z,7.1
2023-02-09T09:00:00.774Z,7.6
2023-02-09T09:05:00.763Z,6.7
2023-02-09T09:10:01.426Z,0.0
2023-02-09T09:15:00.753Z,7.0
2023-02-09T09:20:00.792Z,7.0
2023-02-09T09:25:00.737Z,6.3
2023-02-09T09:30:00.870Z,7.9
2023-02-09T09:35:00.767Z,7.2
2023-02-09T09:40:00.847Z,7.5
2023-02-09T09:45:00.911Z,8.0
2023-02-09T09:50:00.799Z,7.9
2023-02-09T09:55:00.777Z,7.9
2023-02-09T10:00:00.853Z,7.3
2023-02-09T10:05:00.842Z,7.7
2023-02-09T10:10:00.725Z,7.8
2023-02-09T10:15:00.709Z,7.6
2023-02-09T10:20:00.695Z,6.5
2023-02-09T10:25:00.739Z,8.0
2023-02-09T10:30:00.714Z,8.6
2023-02-09T10:35:00.666Z,9.0
2023-02-09T10:40:00.839Z,9.1
2023-02-09T10:45:00.773Z,8.1
2023-02-09T10:50:00.733Z,8.4
2023-02-09T10:55:00.807Z,8.1
2023-02-09T11:00:00.720Z,7.6
2023-02-09T11:05:00.667Z,8.1
2023-02-09T11:10:00.793Z,7.8
2023-02-09T11:15:00.937Z,8.4
2023-02-09T11:20:00.650Z,8.3
2023-02-09T11:25:00.717Z,9.2
2023-02-09T11:30:01.206Z,9.2
2023-02-09T11:35:00.680Z,8.7
2023-02-09T11:40:01.005Z,9.8
2023-02-09T11:45:00.681Z,9.1
2023-02-09T11:50:00.678Z,9.9
2023-02-09T11:55:00.826Z,8.7
2023-02-09T12:00:00.764Z,10.3
2023-02-09T12:05:00.708Z,9.6
2023-02-09T12:10:00.750Z,10.1
2023-02-09T12:15:00.691Z,9.7
2023-02-09T12:20:00.758Z,10.0
2023-02-09T12:25:00.657Z,10.4
2023-02-09T12:30:00.709Z,10.4
2023-02-09T12:35:00.727Z,10.5
2023-02-09T12:40:00.742Z,10.9
2023-02-09T12:45:00.739Z,10.8
2023-02-09T12:50:00.764Z,11.4
2023-02-09T12:55:00.707Z,11.3
2023-02-09T13:00:00.732Z,11.4
2023-02-09T13:05:00.752Z,11.6
2023-02-09T13:10:00.728Z,11.0
2023-02-09T13:15:00.761Z,11.9
2023-02-09T13:20:00.745Z,11.3
2023-02-09T13:25:00.660Z,11.1
2023-02-09T13:30:00.693Z,11.3
2023-02-09T13:35:00.688Z,11.5
2023-02-09T13:40:00.809Z,10.4
2023-02-09T13:45:00.682Z,9.9
2023-02-09T13:50:00.773Z,10.7
2023-02-09T13:55:00.776Z,11.3
2023-02-09T14:00:00.700Z,10.9
2023-02-09T14:05:00.790Z,10.8
2023-02-09T14:10:00.750Z,11.2
2023-02-09T14:15:00.770Z,11.3
2023-02-09T14:20:00.860Z,11.5
2023-02-09T14:25:00.665Z,11.4
2023-02-09T14:30:00.693Z,11.5
2023-02-09T14:35:00.798Z,11.1
2023-02-09T14:40:00.777Z,11.1
2023-02-09T14:45:00.669Z,12.2
2023-02-09T14:50:00.695Z,12.0
2023-02-09T14:55:00.711Z,12.0
2023-02-09T15:00:00.799Z,11.3
2023-02-09T15:05:00.767Z,11.1
2023-02-09T15:10:00.716Z,11.0
2023-02-09T15:15:00.708Z,12.3
2023-02-09T15:20:00.767Z,13.1
2023-02-09T15:25:00.725Z,12.9
2023-02-09T15:30:04.100Z,11.7
2023-02-09T15:35:00.754Z,13.0
2023-02-09T15:40:00.785Z,14.3
2023-02-09T15:45:00.763Z,13.2
2023-02-09T15:50:00.717Z,14.8
2023-02-09T15:55:00.648Z,14.8
2023-02-09T16:00:00.848Z,13.8
2023-02-09T16:05:00.742Z,14.6
2023-02-09T16:10:00.780Z,14.8
2023-02-09T16:15:00.741Z,13.1
2023-02-09T16:20:00.781Z,13.2
2023-02-09T16:25:00.765Z,14.3
2023-02-09T16:30:00.697Z,15.4
2023-02-09T16:35:15.928Z,15.4
2023-02-09T16:40:00.838Z,15.0
2023-02-09T16:45:00.772Z,13.6
2023-02-09T16:50:00.796Z,14.0
2023-02-09T16:55:00.727Z,14.5
2023-02-09T17:00:00.841Z,14.4
2023-02-09T17:05:00.838Z,14.3
2023-02-09T17:10:00.734Z,16.7
2023-02-09T17:15:00.766Z,14.5
2023-02-09T17:20:00.858Z,15.1
2023-02-09T17:25:00.870Z,15.1
2023-02-09T17:30:00.734Z,16.6
2023-02-09T17:35:00.787Z,16.1
2023-02-09T17:40:00.697Z,15.3
2023-02-09T17:45:00.764Z,18.9
2023-02-09T17:50:00.754Z,17.3
2023-02-09T17:55:00.974Z,16.7
2023-02-09T18:00:00.756Z,17.0
2023-02-09T18:05:00.730Z,16.2
2023-02-09T18:10:00.728Z,15.7
2023-02-09T18:15:00.774Z,16.6
2023-02-09T18:20:01.079Z,15.2
2023-02-09T18:25:00.751Z,15.9
2023-02-09T18:30:00.935Z,17.8
2023-02-09T18:35:00.740Z,17.3
2023-02-09T18:40:00.713Z,16.6
2023-02-09T18:45:00.815Z,17.6
2023-02-09T18:50:00.700Z,17.6
2023-02-09T18:55:00.728Z,16.3
2023-02-09T19:00:00.753Z,17.3
2023-02-09T19:05:00.817Z,18.0
2023-02-09T19:10:00.720Z,18.5
2023-02-09T19:15:00.743Z,18.1
2023-02-09T19:20:00.766Z,17.2
2023-02-09T19:25:00.763Z,17.0
2023-02-09T19:30:00.895Z,19.5
2023-02-09T19:35:00.740Z,19.9
2023-02-09T19:40:00.725Z,18.6
2023-02-09T19:45:00.765Z,18.2
2023-02-09T19:50:00.758Z,19.0
2023-02-09T19:55:00.733Z,19.2
2023-02-09T20:00:00.779Z,20.2
2023-02-09T20:05:00.789Z,17.8
2023-02-09T20:10:00.734Z,19.9
2023-02-09T20:15:00.918Z,18.6
2023-02-09T20:20:00.812Z,19.3
2023-02-09T20:25:01.121Z,21.3
2023-02-09T20:30:00.764Z,20.2
2023-02-09T20:35:00.716Z,20.7
2023-02-09T20:40:00.690Z,20.8
2023-02-09T20:45:00.814Z,21.4
2023-02-09T20:50:00.900Z,20.3
2023-02-09T20:55:00.879Z,20.2
2023-02-09T21:00:00.859Z,20.2
2023-02-09T21:05:00.778Z,19.1
2023-02-09T21:10:00.742Z,15.5
2023-02-09T21:15:00.755Z,21.5
2023-02-09T21:20:00.786Z,19.3
2023-02-09T21:25:00.766Z,20.3
2023-02-09T21:30:00.795Z,0.0
2023-02-09T21:35:00.719Z,19.8
2023-02-09T21:40:00.699Z,19.3
2023-02-09T21:45:00.680Z,19.8
2023-02-09T21:50:00.743Z,18.3
2023-02-09T21:55:00.701Z,19.9
2023-02-09T22:00:00.793Z,19.4
2023-02-09T22:05:00.881Z,20.3
2023-02-09T22:10:00.694Z,17.0
2023-02-09T22:15:00.884Z,0.0
2023-02-09T22:20:00.704Z,16.4
2023-02-09T22:25:00.701Z,17.1
2023-02-09T22:30:00.689Z,16.4
2023-02-09T22:35:00.666Z,17.8
2023-02-09T22:40:00.707Z,18.3
2023-02-09T22:45:00.654Z,18.2
2023-02-09T22:50:00.749Z,17.1
2023-02-09T22:55:00.836Z,16.6
2023-02-09T23:00:00.773Z,17.1
2023-02-09T23:05:00.707Z,15.9
2023-02-09T23:10:00.693Z,14.3
2023-02-09T23:15:00.699Z,15.9
2023-02-09T23:20:00.745Z,14.0
2023-02-09T23:25:01.724Z,14.2
2023-02-09T23:30:00.735Z,14.0
2023-02-09T23:35:00.967Z,14.4
2023-02-09T23:40:00.721Z,14.0
2023-02-09T23:45:01.458Z,14.1
2023-02-09T23:50:00.776Z,13.9
2023-02-09T23:55:00.826Z,13.6
